createdAt,value
2019-03-22T00:02:08.263Z,7.90
2019-03-22T00:04:57.932Z,7.23
2019-03-22T00:07:48.727Z,9.87
2019-03-22T00:10:38.092Z,8.97
2019-03-22T00:13:27.400Z,7.90
2019-03-22T00:16:16.532Z,9.33
2019-03-22T00:19:06.521Z,10.20
2019-03-22T00:21:56.896Z,8.60
2019-03-22T00:24:46.451Z,8.60
2019-03-22T00:27:37.167Z,7.20
2019-03-22T00:30:26.283Z,8.23
2019-03-22T00:33:16.448Z,7.83
2019-03-22T00:36:05.418Z,6.80
2019-03-22T00:38:56.277Z,7.03
2019-03-22T00:41:45.937Z,6.70
2019-03-22T00:44:35.402Z,8.40
2019-03-22T00:47:25.706Z,8.27
2019-03-22T00:50:15.782Z,10.33
2019-03-22T00:53:05.997Z,8.70
2019-03-22T00:55:55.261Z,8.87
2019-03-22T00:58:44.392Z,10.93
2019-03-22T01:01:34.361Z,9.40
2019-03-22T01:04:24.512Z,9.10
2019-03-22T01:07:14.945Z,9.33
2019-03-22T01:10:06.017Z,9.03
2019-03-22T01:12:56.592Z,7.90
2019-03-22T01:15:46.001Z,11.63
2019-03-22T01:18:36.260Z,13.87
2019-03-22T01:21:26.653Z,10.23
2019-03-22T01:24:15.827Z,11.80
2019-03-22T01:27:06.100Z,10.30
2019-03-22T01:29:55.583Z,12.97
2019-03-22T01:32:45.444Z,8.80
2019-03-22T01:35:35.777Z,11.20
2019-03-22T01:38:25.090Z,13.10
2019-03-22T01:41:14.924Z,14.87
2019-03-22T01:44:04.125Z,10.33
2019-03-22T01:46:54.365Z,10.13
2019-03-22T01:49:44.425Z,10.37
2019-03-22T01:52:33.747Z,9.50
2019-03-22T01:55:23.810Z,8.70
2019-03-22T01:58:13.769Z,8.87
2019-03-22T02:01:03.388Z,10.73
2019-03-22T02:03:53.298Z,9.17
2019-03-22T02:06:43.051Z,14.07
2019-03-22T02:09:32.893Z,6.57
2019-03-22T02:12:22.773Z,8.67
2019-03-22T02:15:13.769Z,8.53
2019-03-22T02:18:03.964Z,7.80
2019-03-22T02:20:54.146Z,11.07
2019-03-22T02:23:43.505Z,8.53
2019-03-22T02:26:33.560Z,8.13
2019-03-22T02:29:23.537Z,8.37
2019-03-22T02:32:13.039Z,8.43
2019-03-22T02:35:02.476Z,7.13
2019-03-22T02:37:51.977Z,8.37
2019-03-22T02:40:42.223Z,8.30
2019-03-22T02:43:32.636Z,7.07
2019-03-22T02:46:22.540Z,6.83
2019-03-22T02:49:12.918Z,9.60
2019-03-22T02:52:02.464Z,10.27
2019-03-22T02:54:52.361Z,10.70
2019-03-22T02:57:42.423Z,8.63
2019-03-22T03:00:32.028Z,9.20
2019-03-22T03:03:22.183Z,9.17
2019-03-22T03:06:11.905Z,7.60
2019-03-22T03:09:01.463Z,8.90
2019-03-22T03:11:52.900Z,7.87
2019-03-22T03:14:42.313Z,8.77
2019-03-22T03:17:32.303Z,8.97
2019-03-22T03:20:22.346Z,7.87
2019-03-22T03:23:12.811Z,8.77
2019-03-22T03:26:02.923Z,9.30
2019-03-22T03:28:53.047Z,7.73
2019-03-22T03:31:43.019Z,7.57
2019-03-22T03:34:32.758Z,9.87
2019-03-22T03:37:23.147Z,9.93
2019-03-22T03:40:13.341Z,7.53
2019-03-22T03:43:03.422Z,9.50
2019-03-22T03:45:53.201Z,7.57
2019-03-22T03:48:42.948Z,9.23
2019-03-22T03:51:33.085Z,8.10
2019-03-22T03:54:22.656Z,7.23
2019-03-22T03:57:12.625Z,9.87
2019-03-22T04:00:01.945Z,8.27
2019-03-22T04:02:53.294Z,12.03
2019-03-22T04:05:43.381Z,8.87
2019-03-22T04:08:33.580Z,9.43
2019-03-22T04:11:23.635Z,7.87
2019-03-22T04:14:13.860Z,8.23
2019-03-22T04:17:03.762Z,8.73
2019-03-22T04:19:53.633Z,10.33
2019-03-22T04:22:43.493Z,8.40
2019-03-22T04:25:33.324Z,8.57
2019-03-22T04:28:23.085Z,10.30
2019-03-22T04:31:12.340Z,8.37
2019-03-22T04:34:01.301Z,9.07
2019-03-22T04:36:51.850Z,9.63
2019-03-22T04:39:41.044Z,6.83
2019-03-22T04:42:30.818Z,7.77
2019-03-22T04:45:20.040Z,7.53
2019-03-22T04:48:18.543Z,7.23
2019-03-22T04:51:08.244Z,8.60
2019-03-22T04:54:01.347Z,9.27
2019-03-22T04:56:51.359Z,8.23
2019-03-22T04:59:41.979Z,10.47
2019-03-22T05:02:32.324Z,7.53
2019-03-22T05:05:23.043Z,9.00
2019-03-22T05:08:13.564Z,7.20
2019-03-22T05:11:04.496Z,6.87
2019-03-22T05:13:55.239Z,9.77
2019-03-22T05:16:47.024Z,7.17
2019-03-22T05:19:39.058Z,8.40
2019-03-22T05:22:30.681Z,9.80
2019-03-22T05:25:22.104Z,9.47
2019-03-22T05:28:12.859Z,8.17
2019-03-22T05:31:40.166Z,8.90
2019-03-22T05:34:30.096Z,9.53
2019-03-22T05:37:20.376Z,8.90
2019-03-22T05:40:10.397Z,8.53
2019-03-22T05:43:00.289Z,10.17
2019-03-22T05:45:49.895Z,6.80
2019-03-22T05:48:39.772Z,8.67
2019-03-22T05:51:29.884Z,25.27
2019-03-22T05:54:19.973Z,9.10
2019-03-22T05:57:13.606Z,9.20
2019-03-22T06:00:01.034Z,6.27
2019-03-22T06:02:50.790Z,7.53
2019-03-22T06:05:40.292Z,6.97
2019-03-22T06:08:30.172Z,9.53
2019-03-22T06:11:19.932Z,9.17
2019-03-22T06:14:10.469Z,7.43
2019-03-22T06:16:59.910Z,8.97
2019-03-22T06:19:49.952Z,9.13
2019-03-22T06:22:40.278Z,8.53
2019-03-22T06:25:29.819Z,7.30
2019-03-22T06:28:19.082Z,10.80
2019-03-22T06:31:08.585Z,7.13
2019-03-22T06:33:58.259Z,7.23
2019-03-22T06:36:48.113Z,7.87
2019-03-22T06:39:38.424Z,8.80
2019-03-22T06:42:28.889Z,8.37
2019-03-22T06:45:19.032Z,6.60
2019-03-22T06:48:09.224Z,9.57
2019-03-22T06:50:59.610Z,7.00
2019-03-22T06:53:50.028Z,9.83
2019-03-22T06:56:40.442Z,8.93
2019-03-22T06:59:29.853Z,6.83
2019-03-22T07:02:19.978Z,7.57
2019-03-22T07:05:09.028Z,9.57
2019-03-22T07:07:59.081Z,11.33
2019-03-22T07:10:49.241Z,9.70
2019-03-22T07:13:39.511Z,14.77
2019-03-22T07:16:29.805Z,12.13
2019-03-22T07:19:19.615Z,11.10
2019-03-22T07:22:09.178Z,12.33
2019-03-22T07:24:59.148Z,9.43
2019-03-22T07:27:48.783Z,9.47
2019-03-22T07:30:38.597Z,11.13
2019-03-22T07:33:28.290Z,12.20
2019-03-22T07:36:18.082Z,11.07
2019-03-22T07:39:08.675Z,13.90
2019-03-22T07:41:58.797Z,13.63
2019-03-22T07:44:48.109Z,14.53
2019-03-22T07:47:38.222Z,14.60
2019-03-22T07:50:27.971Z,14.47
2019-03-22T07:53:17.596Z,12.67
2019-03-22T07:56:07.957Z,19.63
2019-03-22T07:58:57.794Z,14.63
2019-03-22T08:01:48.017Z,11.30
2019-03-22T08:04:38.232Z,12.43
2019-03-22T08:07:27.137Z,15.77
2019-03-22T08:10:17.405Z,16.50
2019-03-22T08:13:06.664Z,18.93
2019-03-22T08:15:57.712Z,12.13
2019-03-22T08:18:46.764Z,13.50
2019-03-22T08:21:36.497Z,16.60
2019-03-22T08:24:26.678Z,17.33
2019-03-22T08:27:16.844Z,12.70
2019-03-22T08:30:07.151Z,20.77
2019-03-22T08:32:57.178Z,14.17
2019-03-22T08:35:46.527Z,13.03
2019-03-22T08:38:36.789Z,12.37
2019-03-22T08:41:25.728Z,14.07
2019-03-22T08:44:15.237Z,14.47
2019-03-22T08:47:05.186Z,13.43
2019-03-22T08:49:55.127Z,13.37
2019-03-22T08:52:45.176Z,12.63
2019-03-22T08:55:35.236Z,16.00
2019-03-22T08:58:25.058Z,14.90
2019-03-22T09:01:14.653Z,19.30
2019-03-22T09:04:04.853Z,17.63
2019-03-22T09:06:55.012Z,15.77
2019-03-22T09:09:45.247Z,14.70
2019-03-22T09:12:35.308Z,18.53
2019-03-22T09:15:24.839Z,13.40
2019-03-22T09:18:15.624Z,14.43
2019-03-22T09:21:05.147Z,13.47
2019-03-22T09:23:55.302Z,12.13
2019-03-22T09:26:47.960Z,11.67
2019-03-22T09:29:36.911Z,11.03
2019-03-22T09:32:27.266Z,13.93
2019-03-22T09:35:17.417Z,14.47
2019-03-22T09:38:12.736Z,13.73
2019-03-22T09:40:58.681Z,13.50
2019-03-22T09:43:48.252Z,16.83
2019-03-22T09:46:38.024Z,12.93
2019-03-22T09:49:27.966Z,15.03
2019-03-22T09:52:17.250Z,17.10
2019-03-22T09:55:13.504Z,14.83
2019-03-22T09:57:57.764Z,14.43
2019-03-22T10:00:48.738Z,13.17
2019-03-22T10:03:38.746Z,14.00
2019-03-22T10:06:27.951Z,11.83
2019-03-22T10:09:17.990Z,12.70
2019-03-22T10:12:08.665Z,11.90
2019-03-22T10:14:58.628Z,16.30
2019-03-22T10:17:48.152Z,15.17
2019-03-22T10:20:38.494Z,13.97
2019-03-22T10:23:28.931Z,14.10
2019-03-22T10:26:18.351Z,12.27
2019-03-22T10:29:07.502Z,13.30
2019-03-22T10:31:56.996Z,17.80
2019-03-22T10:34:47.071Z,11.77
2019-03-22T10:37:37.179Z,11.80
2019-03-22T10:40:27.438Z,15.20
2019-03-22T10:43:17.231Z,11.17
2019-03-22T10:46:08.088Z,13.90
2019-03-22T10:48:58.388Z,10.27
2019-03-22T10:51:57.694Z,9.97
2019-03-22T10:54:44.149Z,12.20
2019-03-22T10:57:34.206Z,12.60
2019-03-22T11:00:24.485Z,12.80
2019-03-22T11:03:13.936Z,11.07
2019-03-22T11:06:04.185Z,12.07
2019-03-22T11:08:54.670Z,11.50
2019-03-22T11:11:44.864Z,9.63
2019-03-22T11:14:34.472Z,12.93
2019-03-22T11:17:24.768Z,8.67
2019-03-22T11:20:15.922Z,9.50
2019-03-22T11:23:06.147Z,9.77
2019-03-22T11:26:03.858Z,9.30
2019-03-22T11:28:47.094Z,8.10
2019-03-22T11:31:40.099Z,9.63
2019-03-22T11:34:27.400Z,9.53
2019-03-22T11:37:17.524Z,10.23
2019-03-22T11:40:08.512Z,11.20
2019-03-22T11:43:07.969Z,13.00
2019-03-22T11:45:49.461Z,8.40
2019-03-22T11:48:39.180Z,8.53
2019-03-22T11:51:29.235Z,8.60
2019-03-22T11:54:19.452Z,7.73
2019-03-22T11:57:09.464Z,8.90
2019-03-22T11:59:59.437Z,8.60
2019-03-22T12:02:49.529Z,9.68
2019-03-22T12:05:40.533Z,7.90
2019-03-22T12:08:30.938Z,10.13
2019-03-22T12:11:20.734Z,8.68
2019-03-22T12:14:09.859Z,9.25
2019-03-22T12:17:00.073Z,9.17
2019-03-22T12:19:50.402Z,7.55
2019-03-22T12:22:40.358Z,7.37
2019-03-22T12:25:29.987Z,10.32
2019-03-22T12:28:20.378Z,10.07
2019-03-22T12:31:10.207Z,7.67
2019-03-22T12:34:00.168Z,7.22
2019-03-22T12:36:50.030Z,9.93
2019-03-22T12:39:41.821Z,10.88
2019-03-22T12:42:31.654Z,9.45
2019-03-22T12:45:23.544Z,9.10
2019-03-22T12:48:13.359Z,10.20
2019-03-22T12:51:03.076Z,8.73
2019-03-22T12:53:53.165Z,9.20
2019-03-22T12:56:42.852Z,9.25
2019-03-22T12:59:33.053Z,8.28
2019-03-22T13:02:23.535Z,11.78
2019-03-22T13:05:12.978Z,7.60
2019-03-22T13:08:02.891Z,8.10
2019-03-22T13:10:53.041Z,7.12
2019-03-22T13:13:43.306Z,9.13
2019-03-22T13:16:33.518Z,8.10
2019-03-22T13:19:23.021Z,10.82
2019-03-22T13:22:13.152Z,9.25
2019-03-22T13:25:03.114Z,8.55
2019-03-22T13:27:52.946Z,7.57
2019-03-22T13:30:43.021Z,7.42
2019-03-22T13:33:32.825Z,7.97
2019-03-22T13:36:22.736Z,8.40
2019-03-22T13:39:12.829Z,6.60
2019-03-22T13:42:02.807Z,7.10
2019-03-22T13:44:53.199Z,8.85
2019-03-22T13:47:42.399Z,6.42
2019-03-22T13:50:32.112Z,8.28
2019-03-22T13:53:22.768Z,8.30
2019-03-22T13:56:12.840Z,7.33
2019-03-22T13:59:02.964Z,6.95
2019-03-22T14:01:53.981Z,10.48
2019-03-22T14:04:44.002Z,7.05
2019-03-22T14:07:33.985Z,5.92
2019-03-22T14:10:31.475Z,6.08
2019-03-22T14:13:21.665Z,10.58
2019-03-22T14:16:10.819Z,6.62
2019-03-22T14:19:00.185Z,6.78
2019-03-22T14:21:50.100Z,5.28
2019-03-22T14:24:39.897Z,7.80
2019-03-22T14:27:30.030Z,6.28
2019-03-22T14:30:20.241Z,6.12
2019-03-22T14:33:13.644Z,6.90
2019-03-22T14:36:01.922Z,7.75
2019-03-22T14:38:51.377Z,7.30
2019-03-22T14:41:41.729Z,7.08
2019-03-22T14:44:32.113Z,7.95
2019-03-22T14:47:22.304Z,5.42
2019-03-22T14:50:11.743Z,8.58
2019-03-22T14:53:01.784Z,10.28
2019-03-22T14:55:51.859Z,8.73
2019-03-22T14:58:42.060Z,6.97
2019-03-22T15:01:31.167Z,6.40
2019-03-22T15:04:21.428Z,7.92
2019-03-22T15:07:19.576Z,7.67
2019-03-22T15:10:01.518Z,8.78
2019-03-22T15:12:51.855Z,8.63
2019-03-22T15:15:58.786Z,6.72
2019-03-22T15:19:06.730Z,7.28
2019-03-22T15:22:20.618Z,5.80
2019-03-22T15:25:33.814Z,7.30
2019-03-22T15:28:57.995Z,6.33
2019-03-22T15:32:19.438Z,6.05
2019-03-22T15:35:31.230Z,5.35
2019-03-22T15:38:40.315Z,6.05
2019-03-22T15:41:29.971Z,11.93
2019-03-22T15:44:19.433Z,13.30
2019-03-22T15:47:09.635Z,8.08
2019-03-22T15:49:59.949Z,6.35
2019-03-22T15:52:50.140Z,6.00
2019-03-22T15:55:40.190Z,4.65
2019-03-22T15:58:30.968Z,5.30
2019-03-22T16:01:20.625Z,6.17
2019-03-22T16:04:10.032Z,7.37
2019-03-22T16:07:00.174Z,6.17
2019-03-22T16:09:49.781Z,6.70
2019-03-22T16:12:40.934Z,7.03
2019-03-22T16:15:31.542Z,9.93
2019-03-22T16:18:22.057Z,9.67
2019-03-22T16:21:11.808Z,8.40
2019-03-22T16:24:01.703Z,6.00
2019-03-22T16:26:50.796Z,6.17
2019-03-22T16:29:40.683Z,8.07
2019-03-22T16:32:30.031Z,7.67
2019-03-22T16:35:19.417Z,10.73
2019-03-22T16:38:10.650Z,7.83
2019-03-22T16:41:00.980Z,6.33
2019-03-22T16:43:49.976Z,7.17
2019-03-22T16:46:40.010Z,11.13
2019-03-22T16:49:30.083Z,9.00
2019-03-22T16:52:20.545Z,7.57
2019-03-22T16:55:12.158Z,7.40
2019-03-22T16:58:02.176Z,6.60
2019-03-22T17:00:51.989Z,6.90
2019-03-22T17:03:42.188Z,9.33
2019-03-22T17:06:32.054Z,7.20
2019-03-22T17:09:21.370Z,8.07
2019-03-22T17:12:11.617Z,10.20
2019-03-22T17:15:02.931Z,9.80
2019-03-22T17:17:34.329Z,8.30
2019-03-22T17:20:06.122Z,10.83
2019-03-22T17:22:37.541Z,9.23
2019-03-22T17:25:08.997Z,7.43
2019-03-22T17:27:41.392Z,10.17
2019-03-22T17:30:14.254Z,10.10
2019-03-22T17:32:46.039Z,12.40
2019-03-22T17:35:17.469Z,7.63
2019-03-22T17:37:49.170Z,9.07
2019-03-22T17:40:20.940Z,12.07
2019-03-22T17:42:52.357Z,11.17
2019-03-22T17:45:24.037Z,10.27
2019-03-22T17:47:55.399Z,12.37
2019-03-22T17:50:27.941Z,13.00
2019-03-22T17:52:59.500Z,17.77
2019-03-22T17:55:30.862Z,12.20
2019-03-22T17:58:02.615Z,11.53
2019-03-22T18:00:34.408Z,10.77
2019-03-22T18:03:06.154Z,12.03
2019-03-22T18:05:37.933Z,12.33
2019-03-22T18:08:09.580Z,14.83
2019-03-22T18:10:41.232Z,12.73
2019-03-22T18:13:12.805Z,8.83
2019-03-22T18:15:44.170Z,11.30
2019-03-22T18:18:15.913Z,7.47
2019-03-22T18:20:47.856Z,7.47
2019-03-22T18:23:19.188Z,8.00
2019-03-22T18:25:51.252Z,9.10
2019-03-22T18:28:24.023Z,10.23
2019-03-22T18:30:56.562Z,11.50
2019-03-22T18:33:28.498Z,6.20
2019-03-22T18:36:00.388Z,10.07
2019-03-22T18:38:32.374Z,10.57
2019-03-22T18:41:03.793Z,9.10
2019-03-22T18:43:35.221Z,8.97
2019-03-22T18:46:07.247Z,10.50
2019-03-22T18:48:38.962Z,7.50
2019-03-22T18:51:10.917Z,8.70
2019-03-22T18:53:42.931Z,10.07
2019-03-22T18:56:14.860Z,15.53
2019-03-22T18:58:46.273Z,9.70
2019-03-22T19:01:17.841Z,9.20
2019-03-22T19:03:50.271Z,9.17
2019-03-22T19:06:22.028Z,13.20
2019-03-22T19:08:53.914Z,13.07
2019-03-22T19:11:26.042Z,12.93
2019-03-22T19:13:57.464Z,10.50
2019-03-22T19:16:30.579Z,12.03
2019-03-22T19:19:02.369Z,11.97
2019-03-22T19:21:33.729Z,15.23
2019-03-22T19:24:06.131Z,19.30
2019-03-22T19:26:37.715Z,36.73
2019-03-22T19:29:09.358Z,16.30
2019-03-22T19:31:41.025Z,14.80
2019-03-22T19:34:12.715Z,18.53
2019-03-22T19:36:44.278Z,14.33
2019-03-22T19:39:16.011Z,10.70
2019-03-22T19:41:47.713Z,9.30
2019-03-22T19:44:19.397Z,10.23
2019-03-22T19:46:51.322Z,8.20
2019-03-22T19:49:22.908Z,10.17
2019-03-22T19:51:54.966Z,7.83
2019-03-22T19:54:26.832Z,7.27
2019-03-22T19:56:58.352Z,9.03
2019-03-22T19:59:30.003Z,9.60
2019-03-22T20:02:01.713Z,8.70
2019-03-22T20:04:33.628Z,8.30
2019-03-22T20:07:05.744Z,10.03
2019-03-22T20:09:37.438Z,8.63
2019-03-22T20:12:09.010Z,10.37
2019-03-22T20:14:40.957Z,8.23
2019-03-22T20:17:12.363Z,8.47
2019-03-22T20:19:43.915Z,13.43
2019-03-22T20:22:15.361Z,13.33
2019-03-22T20:24:46.917Z,8.97
2019-03-22T20:27:18.728Z,8.33
2019-03-22T20:29:50.283Z,7.67
2019-03-22T20:32:21.760Z,7.73
2019-03-22T20:34:53.091Z,9.00
2019-03-22T20:37:24.655Z,8.83
2019-03-22T20:39:56.048Z,9.00
2019-03-22T20:42:27.708Z,8.93
2019-03-22T20:44:59.380Z,9.23
2019-03-22T20:47:31.785Z,10.47
2019-03-22T20:50:03.186Z,7.57
2019-03-22T20:52:34.884Z,9.73
2019-03-22T20:55:07.328Z,8.43
2019-03-22T20:57:40.024Z,9.83
2019-03-22T21:00:11.752Z,8.07
2019-03-22T21:02:43.428Z,10.03
2019-03-22T21:05:14.827Z,9.07
2019-03-22T21:07:46.469Z,8.47
2019-03-22T21:10:17.870Z,8.77
2019-03-22T21:12:49.286Z,7.33
2019-03-22T21:15:24.710Z,7.73
2019-03-22T21:17:54.017Z,10.53
2019-03-22T21:20:25.514Z,8.60
2019-03-22T21:22:57.083Z,8.03
2019-03-22T21:25:28.406Z,11.03
2019-03-22T21:28:00.331Z,9.30
2019-03-22T21:30:31.880Z,8.20
2019-03-22T21:33:03.293Z,10.00
2019-03-22T21:35:37.559Z,9.33
2019-03-22T21:38:11.186Z,9.03
2019-03-22T21:40:41.535Z,9.73
2019-03-22T21:43:13.442Z,9.93
2019-03-22T21:45:45.146Z,10.97
2019-03-22T21:48:16.548Z,10.53
2019-03-22T21:50:48.113Z,10.17
2019-03-22T21:53:19.686Z,13.53
2019-03-22T21:55:51.241Z,13.63
2019-03-22T21:58:22.923Z,9.90
2019-03-22T22:00:54.340Z,10.53
2019-03-22T22:03:25.684Z,9.47
2019-03-22T22:05:57.179Z,8.77
2019-03-22T22:08:28.820Z,9.43
2019-03-22T22:11:00.481Z,12.90
2019-03-22T22:13:32.386Z,10.10
2019-03-22T22:16:04.043Z,9.40
2019-03-22T22:18:35.716Z,10.60
2019-03-22T22:21:07.126Z,10.43
2019-03-22T22:23:38.519Z,10.73
2019-03-22T22:26:10.151Z,8.77
2019-03-22T22:28:41.572Z,8.73
2019-03-22T22:31:13.218Z,11.90
2019-03-22T22:33:44.660Z,11.57
2019-03-22T22:36:16.453Z,9.33
2019-03-22T22:38:49.017Z,8.73
2019-03-22T22:41:20.314Z,10.13
2019-03-22T22:43:51.654Z,10.33
2019-03-22T22:46:23.488Z,10.23
2019-03-22T22:48:54.961Z,11.57
2019-03-22T22:51:26.779Z,9.77
2019-03-22T22:53:58.868Z,11.27
2019-03-22T22:56:30.216Z,10.27
2019-03-22T22:59:01.845Z,10.40
2019-03-22T23:01:33.277Z,11.43
2019-03-22T23:04:04.914Z,9.53
2019-03-22T23:06:36.549Z,11.23
2019-03-22T23:09:07.879Z,11.73
2019-03-22T23:11:41.012Z,8.83
2019-03-22T23:14:13.026Z,11.60
2019-03-22T23:16:44.368Z,11.07
2019-03-22T23:19:15.949Z,13.53
2019-03-22T23:21:47.355Z,9.30
2019-03-22T23:24:18.919Z,15.10
2019-03-22T23:26:50.804Z,15.03
2019-03-22T23:29:22.126Z,13.30
2019-03-22T23:31:53.663Z,15.47
2019-03-22T23:34:25.473Z,14.37
2019-03-22T23:36:56.966Z,11.67
2019-03-22T23:39:28.607Z,15.13
2019-03-22T23:42:00.276Z,12.30
2019-03-22T23:44:31.859Z,16.33
2019-03-22T23:47:03.452Z,15.07
2019-03-22T23:49:35.090Z,11.77
2019-03-22T23:52:06.880Z,16.00
2019-03-22T23:54:38.218Z,20.30
2019-03-22T23:57:09.810Z,15.67
2019-03-22T23:59:41.451Z,13.97
